sensor_id;sensor_type;location;lat;lon;timestamp;P1;durP1;ratioP1;P2;durP2;ratioP2
71896;SDS011;59767;51.344;12.362;2023-04-24T00:00:23;2.47;;;1.42;;
71896;SDS011;59767;51.344;12.362;2023-04-24T00:03:30;1.88;;;1.30;;
71896;SDS011;59767;51.344;12.362;2023-04-24T00:06:34;3.88;;;1.60;;
71896;SDS011;59767;51.344;12.362;2023-04-24T00:09:38;3.20;;;1.48;;
71896;SDS011;59767;51.344;12.362;2023-04-24T00:12:42;3.33;;;1.45;;
71896;SDS011;59767;51.344;12.362;2023-04-24T00:15:46;5.70;;;1.45;;
71896;SDS011;59767;51.344;12.362;2023-04-24T00:18:50;4.85;;;1.50;;
71896;SDS011;59767;51.344;12.362;2023-04-24T00:21:56;3.88;;;1.45;;
71896;SDS011;59767;51.344;12.362;2023-04-24T00:25:00;8.10;;;1.60;;
71896;SDS011;59767;51.344;12.362;2023-04-24T00:28:04;4.25;;;1.52;;
71896;SDS011;59767;51.344;12.362;2023-04-24T00:31:08;4.63;;;1.45;;
71896;SDS011;59767;51.344;12.362;2023-04-24T00:34:12;4.65;;;1.58;;
71896;SDS011;59767;51.344;12.362;2023-04-24T00:37:17;3.40;;;1.52;;
71896;SDS011;59767;51.344;12.362;2023-04-24T00:40:21;3.67;;;1.50;;
71896;SDS011;59767;51.344;12.362;2023-04-24T00:43:25;3.67;;;1.48;;
71896;SDS011;59767;51.344;12.362;2023-04-24T00:46:29;5.40;;;1.50;;
71896;SDS011;59767;51.344;12.362;2023-04-24T00:49:34;4.82;;;1.48;;
71896;SDS011;59767;51.344;12.362;2023-04-24T00:52:38;3.83;;;1.50;;
71896;SDS011;59767;51.344;12.362;2023-04-24T00:55:44;3.05;;;1.45;;
71896;SDS011;59767;51.344;12.362;2023-04-24T00:58:49;6.85;;;1.33;;
71896;SDS011;59767;51.344;12.362;2023-04-24T01:01:53;3.40;;;1.45;;
71896;SDS011;59767;51.344;12.362;2023-04-24T01:04:57;4.60;;;1.42;;
71896;SDS011;59767;51.344;12.362;2023-04-24T01:08:02;3.90;;;1.52;;
71896;SDS011;59767;51.344;12.362;2023-04-24T01:11:06;3.42;;;1.40;;
71896;SDS011;59767;51.344;12.362;2023-04-24T01:14:11;3.20;;;1.30;;
71896;SDS011;59767;51.344;12.362;2023-04-24T01:17:15;3.25;;;1.20;;
71896;SDS011;59767;51.344;12.362;2023-04-24T01:20:19;3.17;;;1.13;;
71896;SDS011;59767;51.344;12.362;2023-04-24T01:23:25;2.80;;;1.30;;
71896;SDS011;59767;51.344;12.362;2023-04-24T01:26:30;4.70;;;1.10;;
71896;SDS011;59767;51.344;12.362;2023-04-24T01:29:34;2.00;;;1.00;;
71896;SDS011;59767;51.344;12.362;2023-04-24T01:32:39;2.35;;;1.15;;
71896;SDS011;59767;51.344;12.362;2023-04-24T01:35:44;4.22;;;1.17;;
71896;SDS011;59767;51.344;12.362;2023-04-24T01:38:48;2.97;;;1.00;;
71896;SDS011;59767;51.344;12.362;2023-04-24T01:41:52;2.05;;;1.00;;
71896;SDS011;59767;51.344;12.362;2023-04-24T01:44:57;1.85;;;1.15;;
71896;SDS011;59767;51.344;12.362;2023-04-24T01:48:01;3.28;;;1.23;;
71896;SDS011;59767;51.344;12.362;2023-04-24T01:51:06;3.45;;;1.10;;
71896;SDS011;59767;51.344;12.362;2023-04-24T01:54:10;2.95;;;1.10;;
71896;SDS011;59767;51.344;12.362;2023-04-24T01:57:14;4.93;;;1.13;;
71896;SDS011;59767;51.344;12.362;2023-04-24T02:00:20;1.90;;;1.08;;
71896;SDS011;59767;51.344;12.362;2023-04-24T02:03:25;4.15;;;1.00;;
71896;SDS011;59767;51.344;12.362;2023-04-24T02:06:30;1.60;;;1.00;;
71896;SDS011;59767;51.344;12.362;2023-04-24T02:09:35;1.77;;;0.98;;
71896;SDS011;59767;51.344;12.362;2023-04-24T02:12:38;5.82;;;1.20;;
71896;SDS011;59767;51.344;12.362;2023-04-24T02:15:42;3.53;;;1.10;;
71896;SDS011;59767;51.344;12.362;2023-04-24T02:18:47;2.47;;;1.10;;
71896;SDS011;59767;51.344;12.362;2023-04-24T02:21:51;2.30;;;1.02;;
71896;SDS011;59767;51.344;12.362;2023-04-24T02:24:55;2.45;;;1.08;;
71896;SDS011;59767;51.344;12.362;2023-04-24T02:27:59;3.33;;;1.10;;
71896;SDS011;59767;51.344;12.362;2023-04-24T02:31:03;2.72;;;1.10;;
71896;SDS011;59767;51.344;12.362;2023-04-24T02:34:07;2.08;;;1.17;;
71896;SDS011;59767;51.344;12.362;2023-04-24T02:37:12;2.47;;;1.10;;
71896;SDS011;59767;51.344;12.362;2023-04-24T02:40:17;2.17;;;1.20;;
71896;SDS011;59767;51.344;12.362;2023-04-24T02:43:21;2.63;;;1.23;;
71896;SDS011;59767;51.344;12.362;2023-04-24T02:46:25;2.65;;;1.20;;
71896;SDS011;59767;51.344;12.362;2023-04-24T02:49:29;3.55;;;1.27;;
71896;SDS011;59767;51.344;12.362;2023-04-24T02:52:33;3.17;;;1.10;;
71896;SDS011;59767;51.344;12.362;2023-04-24T02:55:37;4.57;;;1.10;;
71896;SDS011;59767;51.344;12.362;2023-04-24T02:58:41;2.25;;;1.08;;
71896;SDS011;59767;51.344;12.362;2023-04-24T03:01:46;3.67;;;1.20;;
71896;SDS011;59767;51.344;12.362;2023-04-24T03:04:49;2.95;;;0.93;;
71896;SDS011;59767;51.344;12.362;2023-04-24T03:07:53;3.42;;;1.30;;
71896;SDS011;59767;51.344;12.362;2023-04-24T03:10:58;2.85;;;1.10;;
71896;SDS011;59767;51.344;12.362;2023-04-24T03:14:02;2.63;;;1.13;;
71896;SDS011;59767;51.344;12.362;2023-04-24T03:17:06;3.65;;;1.13;;
71896;SDS011;59767;51.344;12.362;2023-04-24T03:20:10;1.88;;;1.10;;
71896;SDS011;59767;51.344;12.362;2023-04-24T03:23:14;5.65;;;1.30;;
71896;SDS011;59767;51.344;12.362;2023-04-24T03:26:19;2.60;;;1.17;;
71896;SDS011;59767;51.344;12.362;2023-04-24T03:29:23;4.93;;;1.20;;
71896;SDS011;59767;51.344;12.362;2023-04-24T03:32:27;2.38;;;1.30;;
71896;SDS011;59767;51.344;12.362;2023-04-24T03:35:31;3.42;;;1.15;;
71896;SDS011;59767;51.344;12.362;2023-04-24T03:38:35;2.38;;;1.08;;
71896;SDS011;59767;51.344;12.362;2023-04-24T03:41:39;3.10;;;1.20;;
71896;SDS011;59767;51.344;12.362;2023-04-24T03:44:43;1.92;;;0.98;;
71896;SDS011;59767;51.344;12.362;2023-04-24T03:47:47;2.55;;;1.17;;
71896;SDS011;59767;51.344;12.362;2023-04-24T03:50:51;3.03;;;0.95;;
71896;SDS011;59767;51.344;12.362;2023-04-24T03:53:56;4.82;;;1.10;;
71896;SDS011;59767;51.344;12.362;2023-04-24T03:57:00;5.10;;;1.30;;
71896;SDS011;59767;51.344;12.362;2023-04-24T04:00:07;2.80;;;1.15;;
71896;SDS011;59767;51.344;12.362;2023-04-24T04:03:12;3.97;;;1.30;;
71896;SDS011;59767;51.344;12.362;2023-04-24T04:06:18;2.35;;;1.08;;
71896;SDS011;59767;51.344;12.362;2023-04-24T04:09:23;3.65;;;1.20;;
71896;SDS011;59767;51.344;12.362;2023-04-24T04:12:26;4.90;;;1.10;;
71896;SDS011;59767;51.344;12.362;2023-04-24T04:15:30;3.83;;;1.20;;
71896;SDS011;59767;51.344;12.362;2023-04-24T04:18:35;5.45;;;1.20;;
71896;SDS011;59767;51.344;12.362;2023-04-24T04:21:39;3.80;;;1.13;;
71896;SDS011;59767;51.344;12.362;2023-04-24T04:24:43;2.53;;;1.10;;
71896;SDS011;59767;51.344;12.362;2023-04-24T04:27:48;3.63;;;1.20;;
71896;SDS011;59767;51.344;12.362;2023-04-24T04:30:52;3.83;;;1.25;;
71896;SDS011;59767;51.344;12.362;2023-04-24T04:34:01;2.42;;;0.82;;
71896;SDS011;59767;51.344;12.362;2023-04-24T04:37:05;3.50;;;1.00;;
71896;SDS011;59767;51.344;12.362;2023-04-24T04:40:10;8.90;;;1.20;;
71896;SDS011;59767;51.344;12.362;2023-04-24T04:43:16;2.15;;;1.00;;
71896;SDS011;59767;51.344;12.362;2023-04-24T04:46:20;2.65;;;1.08;;
71896;SDS011;59767;51.344;12.362;2023-04-24T04:49:24;6.78;;;1.13;;
71896;SDS011;59767;51.344;12.362;2023-04-24T04:52:29;8.30;;;1.15;;
71896;SDS011;59767;51.344;12.362;2023-04-24T04:55:33;3.38;;;1.10;;
71896;SDS011;59767;51.344;12.362;2023-04-24T04:58:37;5.10;;;1.30;;
71896;SDS011;59767;51.344;12.362;2023-04-24T05:01:41;2.63;;;1.20;;
71896;SDS011;59767;51.344;12.362;2023-04-24T05:04:46;4.18;;;1.38;;
71896;SDS011;59767;51.344;12.362;2023-04-24T05:07:50;4.35;;;1.20;;
71896;SDS011;59767;51.344;12.362;2023-04-24T05:10:54;4.88;;;1.27;;
71896;SDS011;59767;51.344;12.362;2023-04-24T05:13:59;3.60;;;1.30;;
71896;SDS011;59767;51.344;12.362;2023-04-24T05:17:03;5.30;;;1.20;;
71896;SDS011;59767;51.344;12.362;2023-04-24T05:20:08;2.75;;;1.00;;
71896;SDS011;59767;51.344;12.362;2023-04-24T05:23:13;9.90;;;1.33;;
71896;SDS011;59767;51.344;12.362;2023-04-24T05:26:17;2.70;;;1.10;;
71896;SDS011;59767;51.344;12.362;2023-04-24T05:29:21;5.50;;;1.25;;
71896;SDS011;59767;51.344;12.362;2023-04-24T05:32:25;3.80;;;1.10;;
71896;SDS011;59767;51.344;12.362;2023-04-24T05:35:30;5.75;;;1.40;;
71896;SDS011;59767;51.344;12.362;2023-04-24T05:38:35;3.45;;;1.00;;
71896;SDS011;59767;51.344;12.362;2023-04-24T05:41:38;3.35;;;1.20;;
71896;SDS011;59767;51.344;12.362;2023-04-24T05:44:42;4.00;;;1.10;;
71896;SDS011;59767;51.344;12.362;2023-04-24T05:47:47;2.88;;;1.20;;
71896;SDS011;59767;51.344;12.362;2023-04-24T05:50:51;5.30;;;1.40;;
71896;SDS011;59767;51.344;12.362;2023-04-24T05:53:56;8.45;;;1.60;;
71896;SDS011;59767;51.344;12.362;2023-04-24T05:57:00;4.63;;;1.30;;
71896;SDS011;59767;51.344;12.362;2023-04-24T06:00:08;5.50;;;1.67;;
71896;SDS011;59767;51.344;12.362;2023-04-24T06:03:15;6.47;;;1.50;;
71896;SDS011;59767;51.344;12.362;2023-04-24T06:06:20;8.95;;;1.70;;
71896;SDS011;59767;51.344;12.362;2023-04-24T06:09:24;6.75;;;1.30;;
71896;SDS011;59767;51.344;12.362;2023-04-24T06:12:29;8.50;;;1.52;;
71896;SDS011;59767;51.344;12.362;2023-04-24T06:15:33;5.30;;;1.67;;
71896;SDS011;59767;51.344;12.362;2023-04-24T06:18:37;5.63;;;1.30;;
71896;SDS011;59767;51.344;12.362;2023-04-24T06:21:41;6.95;;;1.55;;
71896;SDS011;59767;51.344;12.362;2023-04-24T06:24:46;6.70;;;1.30;;
71896;SDS011;59767;51.344;12.362;2023-04-24T06:27:51;6.60;;;1.10;;
71896;SDS011;59767;51.344;12.362;2023-04-24T06:30:56;5.00;;;1.17;;
71896;SDS011;59767;51.344;12.362;2023-04-24T06:34:00;5.22;;;1.15;;
71896;SDS011;59767;51.344;12.362;2023-04-24T06:37:05;6.40;;;1.05;;
71896;SDS011;59767;51.344;12.362;2023-04-24T06:40:09;6.18;;;1.23;;
71896;SDS011;59767;51.344;12.362;2023-04-24T06:43:13;7.40;;;1.50;;
71896;SDS011;59767;51.344;12.362;2023-04-24T06:46:18;7.43;;;1.40;;
71896;SDS011;59767;51.344;12.362;2023-04-24T06:49:26;6.07;;;1.40;;
71896;SDS011;59767;51.344;12.362;2023-04-24T06:52:30;5.05;;;1.30;;
71896;SDS011;59767;51.344;12.362;2023-04-24T06:55:37;4.85;;;1.42;;
71896;SDS011;59767;51.344;12.362;2023-04-24T06:58:41;4.85;;;1.40;;
71896;SDS011;59767;51.344;12.362;2023-04-24T07:01:45;3.72;;;1.20;;
71896;SDS011;59767;51.344;12.362;2023-04-24T07:04:50;6.28;;;1.23;;
71896;SDS011;59767;51.344;12.362;2023-04-24T07:07:54;5.93;;;1.50;;
71896;SDS011;59767;51.344;12.362;2023-04-24T07:10:59;7.53;;;1.67;;
71896;SDS011;59767;51.344;12.362;2023-04-24T07:14:04;7.72;;;1.40;;
71896;SDS011;59767;51.344;12.362;2023-04-24T07:17:08;5.80;;;1.35;;
71896;SDS011;59767;51.344;12.362;2023-04-24T07:20:12;6.95;;;1.17;;
71896;SDS011;59767;51.344;12.362;2023-04-24T07:23:19;4.38;;;0.90;;
71896;SDS011;59767;51.344;12.362;2023-04-24T07:26:25;7.22;;;1.20;;
71896;SDS011;59767;51.344;12.362;2023-04-24T07:29:30;6.90;;;1.15;;
71896;SDS011;59767;51.344;12.362;2023-04-24T07:32:34;6.50;;;1.00;;
71896;SDS011;59767;51.344;12.362;2023-04-24T07:35:39;4.35;;;1.10;;
71896;SDS011;59767;51.344;12.362;2023-04-24T07:38:43;11.25;;;1.20;;
71896;SDS011;59767;51.344;12.362;2023-04-24T07:41:47;7.43;;;1.20;;
71896;SDS011;59767;51.344;12.362;2023-04-24T07:44:51;4.60;;;1.10;;
71896;SDS011;59767;51.344;12.362;2023-04-24T07:47:55;4.40;;;1.10;;
71896;SDS011;59767;51.344;12.362;2023-04-24T07:51:00;9.00;;;1.30;;
71896;SDS011;59767;51.344;12.362;2023-04-24T07:54:05;6.20;;;1.20;;
71896;SDS011;59767;51.344;12.362;2023-04-24T07:57:09;8.18;;;1.30;;
71896;SDS011;59767;51.344;12.362;2023-04-24T08:00:14;3.22;;;1.08;;
71896;SDS011;59767;51.344;12.362;2023-04-24T08:03:18;6.60;;;1.30;;
71896;SDS011;59767;51.344;12.362;2023-04-24T08:06:23;2.38;;;0.93;;
71896;SDS011;59767;51.344;12.362;2023-04-24T08:09:27;4.72;;;1.00;;
71896;SDS011;59767;51.344;12.362;2023-04-24T08:12:32;4.53;;;1.30;;
71896;SDS011;59767;51.344;12.362;2023-04-24T08:15:36;5.93;;;1.20;;
71896;SDS011;59767;51.344;12.362;2023-04-24T08:18:40;7.82;;;1.17;;
71896;SDS011;59767;51.344;12.362;2023-04-24T08:21:45;4.88;;;0.90;;
71896;SDS011;59767;51.344;12.362;2023-04-24T08:24:50;3.25;;;0.90;;
71896;SDS011;59767;51.344;12.362;2023-04-24T08:27:55;2.90;;;0.90;;
71896;SDS011;59767;51.344;12.362;2023-04-24T08:30:59;1.75;;;0.90;;
71896;SDS011;59767;51.344;12.362;2023-04-24T08:34:03;10.32;;;1.25;;
71896;SDS011;59767;51.344;12.362;2023-04-24T08:37:07;6.43;;;1.00;;
71896;SDS011;59767;51.344;12.362;2023-04-24T08:40:13;3.90;;;1.00;;
71896;SDS011;59767;51.344;12.362;2023-04-24T08:43:18;2.83;;;1.10;;
71896;SDS011;59767;51.344;12.362;2023-04-24T08:46:29;6.43;;;0.80;;
71896;SDS011;59767;51.344;12.362;2023-04-24T08:49:35;3.45;;;0.70;;
71896;SDS011;59767;51.344;12.362;2023-04-24T08:52:40;1.65;;;0.60;;
71896;SDS011;59767;51.344;12.362;2023-04-24T08:55:47;6.10;;;0.75;;
71896;SDS011;59767;51.344;12.362;2023-04-24T08:58:51;4.55;;;0.90;;
71896;SDS011;59767;51.344;12.362;2023-04-24T09:01:57;5.35;;;1.60;;
71896;SDS011;59767;51.344;12.362;2023-04-24T09:05:02;5.65;;;0.85;;
71896;SDS011;59767;51.344;12.362;2023-04-24T09:08:07;2.58;;;0.75;;
71896;SDS011;59767;51.344;12.362;2023-04-24T09:11:12;4.63;;;1.00;;
71896;SDS011;59767;51.344;12.362;2023-04-24T09:14:16;1.83;;;0.60;;
71896;SDS011;59767;51.344;12.362;2023-04-24T09:17:21;3.53;;;1.00;;
71896;SDS011;59767;51.344;12.362;2023-04-24T09:20:26;3.58;;;1.02;;
71896;SDS011;59767;51.344;12.362;2023-04-24T09:23:32;5.40;;;0.90;;
71896;SDS011;59767;51.344;12.362;2023-04-24T09:26:36;5.97;;;1.00;;
71896;SDS011;59767;51.344;12.362;2023-04-24T09:29:53;3.42;;;0.82;;
71896;SDS011;59767;51.344;12.362;2023-04-24T09:33:14;7.35;;;1.10;;
71896;SDS011;59767;51.344;12.362;2023-04-24T09:36:20;1.42;;;0.60;;
71896;SDS011;59767;51.344;12.362;2023-04-24T09:39:31;6.93;;;1.25;;
71896;SDS011;59767;51.344;12.362;2023-04-24T09:42:35;4.18;;;0.93;;
71896;SDS011;59767;51.344;12.362;2023-04-24T09:45:39;5.63;;;1.08;;
71896;SDS011;59767;51.344;12.362;2023-04-24T09:48:43;5.55;;;0.80;;
71896;SDS011;59767;51.344;12.362;2023-04-24T09:51:48;3.80;;;0.73;;
71896;SDS011;59767;51.344;12.362;2023-04-24T09:54:52;3.50;;;1.00;;
71896;SDS011;59767;51.344;12.362;2023-04-24T09:57:58;3.20;;;1.08;;
71896;SDS011;59767;51.344;12.362;2023-04-24T10:01:08;7.10;;;1.10;;
71896;SDS011;59767;51.344;12.362;2023-04-24T10:04:20;3.33;;;1.05;;
71896;SDS011;59767;51.344;12.362;2023-04-24T10:07:26;4.20;;;0.88;;
71896;SDS011;59767;51.344;12.362;2023-04-24T10:10:30;16.35;;;1.60;;
71896;SDS011;59767;51.344;12.362;2023-04-24T10:13:35;7.50;;;1.10;;
71896;SDS011;59767;51.344;12.362;2023-04-24T10:16:40;4.93;;;0.80;;
71896;SDS011;59767;51.344;12.362;2023-04-24T10:19:44;5.07;;;0.80;;
71896;SDS011;59767;51.344;12.362;2023-04-24T10:22:50;9.68;;;1.20;;
71896;SDS011;59767;51.344;12.362;2023-04-24T10:25:55;9.23;;;1.17;;
71896;SDS011;59767;51.344;12.362;2023-04-24T10:28:59;5.20;;;1.13;;
71896;SDS011;59767;51.344;12.362;2023-04-24T10:32:06;1.50;;;0.68;;
71896;SDS011;59767;51.344;12.362;2023-04-24T10:35:14;4.60;;;1.00;;
71896;SDS011;59767;51.344;12.362;2023-04-24T10:38:29;7.53;;;1.05;;
71896;SDS011;59767;51.344;12.362;2023-04-24T10:41:36;8.50;;;1.00;;
71896;SDS011;59767;51.344;12.362;2023-04-24T10:44:41;8.48;;;1.27;;
71896;SDS011;59767;51.344;12.362;2023-04-24T10:47:58;7.13;;;1.00;;
71896;SDS011;59767;51.344;12.362;2023-04-24T10:51:11;8.20;;;1.10;;
71896;SDS011;59767;51.344;12.362;2023-04-24T10:54:22;13.30;;;1.20;;
71896;SDS011;59767;51.344;12.362;2023-04-24T10:57:27;5.43;;;1.00;;
71896;SDS011;59767;51.344;12.362;2023-04-24T11:00:39;8.27;;;0.82;;
71896;SDS011;59767;51.344;12.362;2023-04-24T11:03:50;2.25;;;0.77;;
71896;SDS011;59767;51.344;12.362;2023-04-24T11:06:58;10.05;;;1.17;;
71896;SDS011;59767;51.344;12.362;2023-04-24T11:10:03;4.68;;;0.90;;
71896;SDS011;59767;51.344;12.362;2023-04-24T11:13:08;11.13;;;1.20;;
71896;SDS011;59767;51.344;12.362;2023-04-24T11:16:37;2.65;;;0.85;;
71896;SDS011;59767;51.344;12.362;2023-04-24T11:19:49;7.63;;;1.00;;
71896;SDS011;59767;51.344;12.362;2023-04-24T11:22:58;9.63;;;1.50;;
71896;SDS011;59767;51.344;12.362;2023-04-24T11:26:22;5.40;;;1.15;;
71896;SDS011;59767;51.344;12.362;2023-04-24T11:29:59;4.55;;;1.00;;
71896;SDS011;59767;51.344;12.362;2023-04-24T11:33:02;10.07;;;1.20;;
71896;SDS011;59767;51.344;12.362;2023-04-24T11:36:07;5.63;;;1.10;;
71896;SDS011;59767;51.344;12.362;2023-04-24T11:39:12;5.97;;;2.00;;
71896;SDS011;59767;51.344;12.362;2023-04-24T11:42:16;4.28;;;1.20;;
71896;SDS011;59767;51.344;12.362;2023-04-24T11:45:23;1.85;;;0.80;;
71896;SDS011;59767;51.344;12.362;2023-04-24T11:48:36;2.72;;;0.82;;
71896;SDS011;59767;51.344;12.362;2023-04-24T11:51:43;2.13;;;0.93;;
71896;SDS011;59767;51.344;12.362;2023-04-24T11:54:57;2.15;;;0.98;;
71896;SDS011;59767;51.344;12.362;2023-04-24T11:58:01;6.15;;;1.23;;
71896;SDS011;59767;51.344;12.362;2023-04-24T12:01:06;1.63;;;0.98;;
71896;SDS011;59767;51.344;12.362;2023-04-24T12:04:10;5.45;;;0.90;;
71896;SDS011;59767;51.344;12.362;2023-04-24T12:07:15;5.72;;;0.98;;
71896;SDS011;59767;51.344;12.362;2023-04-24T12:10:20;7.50;;;1.20;;
71896;SDS011;59767;51.344;12.362;2023-04-24T12:13:25;5.60;;;1.00;;
71896;SDS011;59767;51.344;12.362;2023-04-24T12:16:29;3.58;;;0.82;;
71896;SDS011;59767;51.344;12.362;2023-04-24T12:19:36;10.73;;;1.08;;
71896;SDS011;59767;51.344;12.362;2023-04-24T12:25:59;3.85;;;1.27;;
71896;SDS011;59767;51.344;12.362;2023-04-24T12:29:04;6.93;;;1.20;;
71896;SDS011;59767;51.344;12.362;2023-04-24T12:32:15;5.53;;;1.45;;
71896;SDS011;59767;51.344;12.362;2023-04-24T12:35:21;4.65;;;1.20;;
71896;SDS011;59767;51.344;12.362;2023-04-24T12:38:27;4.70;;;1.20;;
71896;SDS011;59767;51.344;12.362;2023-04-24T12:41:37;2.17;;;1.20;;
71896;SDS011;59767;51.344;12.362;2023-04-24T12:44:41;4.97;;;1.10;;
71896;SDS011;59767;51.344;12.362;2023-04-24T12:47:46;5.65;;;1.27;;
71896;SDS011;59767;51.344;12.362;2023-04-24T12:50:50;5.65;;;1.10;;
71896;SDS011;59767;51.344;12.362;2023-04-24T12:53:54;11.20;;;1.13;;
71896;SDS011;59767;51.344;12.362;2023-04-24T12:56:59;4.20;;;1.20;;
71896;SDS011;59767;51.344;12.362;2023-04-24T13:00:06;2.65;;;1.00;;
71896;SDS011;59767;51.344;12.362;2023-04-24T13:03:11;7.03;;;1.30;;
71896;SDS011;59767;51.344;12.362;2023-04-24T13:06:16;5.55;;;1.10;;
71896;SDS011;59767;51.344;12.362;2023-04-24T13:09:20;6.35;;;1.30;;
71896;SDS011;59767;51.344;12.362;2023-04-24T13:12:24;3.72;;;1.00;;
71896;SDS011;59767;51.344;12.362;2023-04-24T13:15:29;5.97;;;0.90;;
71896;SDS011;59767;51.344;12.362;2023-04-24T13:18:33;3.00;;;1.00;;
71896;SDS011;59767;51.344;12.362;2023-04-24T13:21:38;4.38;;;1.08;;
71896;SDS011;59767;51.344;12.362;2023-04-24T13:24:42;1.98;;;1.08;;
71896;SDS011;59767;51.344;12.362;2023-04-24T13:27:46;6.88;;;1.30;;
71896;SDS011;59767;51.344;12.362;2023-04-24T13:30:50;4.53;;;1.02;;
71896;SDS011;59767;51.344;12.362;2023-04-24T13:33:55;3.53;;;1.17;;
71896;SDS011;59767;51.344;12.362;2023-04-24T13:36:59;4.43;;;1.00;;
71896;SDS011;59767;51.344;12.362;2023-04-24T13:40:03;2.42;;;1.02;;
71896;SDS011;59767;51.344;12.362;2023-04-24T13:43:09;9.88;;;1.48;;
71896;SDS011;59767;51.344;12.362;2023-04-24T13:46:14;2.92;;;0.90;;
71896;SDS011;59767;51.344;12.362;2023-04-24T13:49:18;9.27;;;1.10;;
71896;SDS011;59767;51.344;12.362;2023-04-24T13:52:22;3.78;;;1.10;;
71896;SDS011;59767;51.344;12.362;2023-04-24T13:55:27;3.70;;;1.10;;
71896;SDS011;59767;51.344;12.362;2023-04-24T13:58:31;6.72;;;1.00;;
71896;SDS011;59767;51.344;12.362;2023-04-24T14:01:40;5.32;;;1.10;;
71896;SDS011;59767;51.344;12.362;2023-04-24T14:04:44;6.93;;;1.05;;
71896;SDS011;59767;51.344;12.362;2023-04-24T14:07:50;3.92;;;0.90;;
71896;SDS011;59767;51.344;12.362;2023-04-24T14:10:54;5.50;;;0.90;;
71896;SDS011;59767;51.344;12.362;2023-04-24T14:13:59;2.63;;;0.70;;
71896;SDS011;59767;51.344;12.362;2023-04-24T14:17:03;5.50;;;0.65;;
71896;SDS011;59767;51.344;12.362;2023-04-24T14:20:07;3.72;;;0.80;;
71896;SDS011;59767;51.344;12.362;2023-04-24T14:23:12;6.68;;;0.70;;
71896;SDS011;59767;51.344;12.362;2023-04-24T14:26:16;5.90;;;0.88;;
71896;SDS011;59767;51.344;12.362;2023-04-24T14:29:20;10.00;;;0.98;;
71896;SDS011;59767;51.344;12.362;2023-04-24T14:32:25;5.57;;;0.80;;
71896;SDS011;59767;51.344;12.362;2023-04-24T14:35:29;17.17;;;1.00;;
71896;SDS011;59767;51.344;12.362;2023-04-24T14:38:35;10.50;;;0.85;;
71896;SDS011;59767;51.344;12.362;2023-04-24T14:41:38;3.63;;;0.70;;
71896;SDS011;59767;51.344;12.362;2023-04-24T14:44:43;6.45;;;0.80;;
71896;SDS011;59767;51.344;12.362;2023-04-24T14:47:47;8.02;;;0.68;;
71896;SDS011;59767;51.344;12.362;2023-04-24T14:50:51;5.63;;;0.57;;
71896;SDS011;59767;51.344;12.362;2023-04-24T14:53:55;6.65;;;0.60;;
71896;SDS011;59767;51.344;12.362;2023-04-24T14:57:00;3.25;;;0.70;;
71896;SDS011;59767;51.344;12.362;2023-04-24T15:00:05;12.48;;;0.68;;
71896;SDS011;59767;51.344;12.362;2023-04-24T15:03:12;9.77;;;0.60;;
71896;SDS011;59767;51.344;12.362;2023-04-24T15:06:16;3.17;;;0.55;;
71896;SDS011;59767;51.344;12.362;2023-04-24T15:09:21;8.50;;;0.70;;
71896;SDS011;59767;51.344;12.362;2023-04-24T15:12:26;3.45;;;0.57;;
71896;SDS011;59767;51.344;12.362;2023-04-24T15:15:30;6.15;;;0.50;;
71896;SDS011;59767;51.344;12.362;2023-04-24T15:18:34;10.50;;;0.68;;
71896;SDS011;59767;51.344;12.362;2023-04-24T15:21:38;2.88;;;0.60;;
71896;SDS011;59767;51.344;12.362;2023-04-24T15:24:45;2.00;;;0.50;;
71896;SDS011;59767;51.344;12.362;2023-04-24T15:27:49;1.35;;;0.45;;
71896;SDS011;59767;51.344;12.362;2023-04-24T15:30:53;1.33;;;0.70;;
71896;SDS011;59767;51.344;12.362;2023-04-24T15:33:58;3.80;;;0.40;;
71896;SDS011;59767;51.344;12.362;2023-04-24T15:37:02;6.03;;;0.57;;
71896;SDS011;59767;51.344;12.362;2023-04-24T15:40:06;3.90;;;0.60;;
71896;SDS011;59767;51.344;12.362;2023-04-24T15:43:14;9.20;;;0.70;;
71896;SDS011;59767;51.344;12.362;2023-04-24T15:46:20;3.22;;;0.40;;
71896;SDS011;59767;51.344;12.362;2023-04-24T15:49:24;4.22;;;0.68;;
71896;SDS011;59767;51.344;12.362;2023-04-24T15:52:29;3.75;;;0.40;;
71896;SDS011;59767;51.344;12.362;2023-04-24T15:55:33;1.08;;;0.35;;
71896;SDS011;59767;51.344;12.362;2023-04-24T15:58:38;4.78;;;0.50;;
71896;SDS011;59767;51.344;12.362;2023-04-24T16:01:42;12.80;;;0.70;;
71896;SDS011;59767;51.344;12.362;2023-04-24T16:04:47;10.70;;;0.50;;
71896;SDS011;59767;51.344;12.362;2023-04-24T16:07:52;7.97;;;0.35;;
71896;SDS011;59767;51.344;12.362;2023-04-24T16:10:56;5.32;;;0.43;;
71896;SDS011;59767;51.344;12.362;2023-04-24T16:14:00;2.95;;;0.35;;
71896;SDS011;59767;51.344;12.362;2023-04-24T16:17:05;1.30;;;0.22;;
71896;SDS011;59767;51.344;12.362;2023-04-24T16:20:10;3.65;;;0.30;;
71896;SDS011;59767;51.344;12.362;2023-04-24T16:23:14;1.10;;;0.40;;
71896;SDS011;59767;51.344;12.362;2023-04-24T16:26:18;7.80;;;0.50;;
71896;SDS011;59767;51.344;12.362;2023-04-24T16:29:22;1.55;;;0.40;;
71896;SDS011;59767;51.344;12.362;2023-04-24T16:32:27;1.05;;;0.30;;
71896;SDS011;59767;51.344;12.362;2023-04-24T16:35:31;4.10;;;0.40;;
71896;SDS011;59767;51.344;12.362;2023-04-24T16:38:36;6.82;;;0.45;;
71896;SDS011;59767;51.344;12.362;2023-04-24T16:41:40;3.08;;;0.47;;
71896;SDS011;59767;51.344;12.362;2023-04-24T16:44:44;2.28;;;0.50;;
71896;SDS011;59767;51.344;12.362;2023-04-24T16:47:48;1.65;;;0.40;;
71896;SDS011;59767;51.344;12.362;2023-04-24T16:50:52;3.08;;;0.47;;
71896;SDS011;59767;51.344;12.362;2023-04-24T16:53:56;3.83;;;0.60;;
71896;SDS011;59767;51.344;12.362;2023-04-24T16:57:01;3.33;;;0.60;;
71896;SDS011;59767;51.344;12.362;2023-04-24T17:00:06;2.90;;;0.60;;
71896;SDS011;59767;51.344;12.362;2023-04-24T17:03:11;2.42;;;0.93;;
71896;SDS011;59767;51.344;12.362;2023-04-24T17:06:16;3.35;;;0.60;;
71896;SDS011;59767;51.344;12.362;2023-04-24T17:09:20;1.75;;;0.60;;
71896;SDS011;59767;51.344;12.362;2023-04-24T17:12:24;1.73;;;0.70;;
71896;SDS011;59767;51.344;12.362;2023-04-24T17:15:28;4.15;;;1.25;;
71896;SDS011;59767;51.344;12.362;2023-04-24T17:18:32;3.00;;;1.00;;
71896;SDS011;59767;51.344;12.362;2023-04-24T17:21:37;4.78;;;0.80;;
71896;SDS011;59767;51.344;12.362;2023-04-24T17:24:41;2.35;;;0.70;;
71896;SDS011;59767;51.344;12.362;2023-04-24T17:27:45;1.70;;;0.80;;
71896;SDS011;59767;51.344;12.362;2023-04-24T17:30:49;3.83;;;0.88;;
71896;SDS011;59767;51.344;12.362;2023-04-24T17:33:54;1.85;;;0.73;;
71896;SDS011;59767;51.344;12.362;2023-04-24T17:36:58;1.45;;;0.60;;
71896;SDS011;59767;51.344;12.362;2023-04-24T17:40:02;0.40;;;0.40;;
71896;SDS011;59767;51.344;12.362;2023-04-24T17:43:07;1.38;;;0.80;;
71896;SDS011;59767;51.344;12.362;2023-04-24T17:46:11;3.80;;;0.80;;
71896;SDS011;59767;51.344;12.362;2023-04-24T17:49:16;4.47;;;0.73;;
71896;SDS011;59767;51.344;12.362;2023-04-24T17:52:20;3.92;;;1.20;;
71896;SDS011;59767;51.344;12.362;2023-04-24T17:55:24;2.53;;;1.00;;
71896;SDS011;59767;51.344;12.362;2023-04-24T17:58:28;1.00;;;0.75;;
71896;SDS011;59767;51.344;12.362;2023-04-24T18:01:33;1.38;;;0.70;;
71896;SDS011;59767;51.344;12.362;2023-04-24T18:04:38;1.83;;;0.80;;
71896;SDS011;59767;51.344;12.362;2023-04-24T18:07:43;5.07;;;0.82;;
71896;SDS011;59767;51.344;12.362;2023-04-24T18:10:48;3.97;;;0.90;;
71896;SDS011;59767;51.344;12.362;2023-04-24T18:13:52;4.32;;;0.77;;
71896;SDS011;59767;51.344;12.362;2023-04-24T18:16:56;1.83;;;0.75;;
71896;SDS011;59767;51.344;12.362;2023-04-24T18:20:01;2.97;;;0.65;;